sensor_id;sensor_type;location;lat;lon;timestamp;P1;durP1;ratioP1;P2;durP2;ratioP2
59938;SDS011;45801;51.810;19.444;2023-06-19T00:00:13;15.70;;;13.10;;
59938;SDS011;45801;51.810;19.444;2023-06-19T00:03:02;16.70;;;13.00;;
59938;SDS011;45801;51.810;19.444;2023-06-19T00:05:29;15.60;;;12.80;;
59938;SDS011;45801;51.810;19.444;2023-06-19T00:07:55;15.10;;;12.00;;
59938;SDS011;45801;51.810;19.444;2023-06-19T00:10:22;15.30;;;12.80;;
59938;SDS011;45801;51.810;19.444;2023-06-19T00:12:49;16.10;;;13.10;;
59938;SDS011;45801;51.810;19.444;2023-06-19T00:15:15;15.90;;;12.80;;
59938;SDS011;45801;51.810;19.444;2023-06-19T00:17:42;15.40;;;13.00;;
59938;SDS011;45801;51.810;19.444;2023-06-19T00:20:09;15.50;;;12.30;;
59938;SDS011;45801;51.810;19.444;2023-06-19T00:22:36;14.20;;;12.50;;
59938;SDS011;45801;51.810;19.444;2023-06-19T00:25:02;16.20;;;12.90;;
59938;SDS011;45801;51.810;19.444;2023-06-19T00:27:29;16.10;;;12.70;;
59938;SDS011;45801;51.810;19.444;2023-06-19T00:29:56;14.80;;;12.60;;
59938;SDS011;45801;51.810;19.444;2023-06-19T00:32:28;16.30;;;13.00;;
59938;SDS011;45801;51.810;19.444;2023-06-19T00:34:55;16.00;;;13.20;;
59938;SDS011;45801;51.810;19.444;2023-06-19T00:37:22;15.20;;;12.60;;
59938;SDS011;45801;51.810;19.444;2023-06-19T00:39:49;14.90;;;11.80;;
59938;SDS011;45801;51.810;19.444;2023-06-19T00:42:15;17.60;;;13.00;;
59938;SDS011;45801;51.810;19.444;2023-06-19T00:44:42;16.70;;;12.50;;
59938;SDS011;45801;51.810;19.444;2023-06-19T00:47:09;11.50;;;8.70;;
59938;SDS011;45801;51.810;19.444;2023-06-19T00:49:36;16.00;;;13.30;;
59938;SDS011;45801;51.810;19.444;2023-06-19T00:52:04;14.90;;;12.20;;
59938;SDS011;45801;51.810;19.444;2023-06-19T00:54:31;15.60;;;13.00;;
59938;SDS011;45801;51.810;19.444;2023-06-19T00:56:57;16.50;;;13.00;;
59938;SDS011;45801;51.810;19.444;2023-06-19T00:59:24;15.80;;;12.30;;
59938;SDS011;45801;51.810;19.444;2023-06-19T01:01:50;15.70;;;12.20;;
59938;SDS011;45801;51.810;19.444;2023-06-19T01:04:17;17.70;;;12.50;;
59938;SDS011;45801;51.810;19.444;2023-06-19T01:06:46;15.00;;;12.70;;
59938;SDS011;45801;51.810;19.444;2023-06-19T01:09:15;16.30;;;13.10;;
59938;SDS011;45801;51.810;19.444;2023-06-19T01:11:43;18.20;;;11.70;;
59938;SDS011;45801;51.810;19.444;2023-06-19T01:14:25;15.40;;;12.40;;
59938;SDS011;45801;51.810;19.444;2023-06-19T01:16:52;15.20;;;11.80;;
59938;SDS011;45801;51.810;19.444;2023-06-19T01:19:20;14.50;;;12.10;;
59938;SDS011;45801;51.810;19.444;2023-06-19T01:21:48;14.90;;;11.80;;
59938;SDS011;45801;51.810;19.444;2023-06-19T01:24:15;16.60;;;12.10;;
59938;SDS011;45801;51.810;19.444;2023-06-19T01:26:42;15.90;;;12.50;;
59938;SDS011;45801;51.810;19.444;2023-06-19T01:29:12;14.80;;;12.00;;
59938;SDS011;45801;51.810;19.444;2023-06-19T01:34:20;16.60;;;12.30;;
59938;SDS011;45801;51.810;19.444;2023-06-19T01:36:47;16.50;;;12.80;;
59938;SDS011;45801;51.810;19.444;2023-06-19T01:39:18;16.60;;;13.50;;
59938;SDS011;45801;51.810;19.444;2023-06-19T01:41:45;19.60;;;12.80;;
59938;SDS011;45801;51.810;19.444;2023-06-19T01:44:14;15.40;;;12.60;;
59938;SDS011;45801;51.810;19.444;2023-06-19T01:46:41;16.70;;;13.60;;
59938;SDS011;45801;51.810;19.444;2023-06-19T01:49:08;15.50;;;12.50;;
59938;SDS011;45801;51.810;19.444;2023-06-19T01:51:36;15.60;;;12.80;;
59938;SDS011;45801;51.810;19.444;2023-06-19T01:54:02;17.30;;;13.30;;
59938;SDS011;45801;51.810;19.444;2023-06-19T01:56:30;16.50;;;13.80;;
59938;SDS011;45801;51.810;19.444;2023-06-19T01:58:57;17.60;;;13.60;;
59938;SDS011;45801;51.810;19.444;2023-06-19T02:01:23;18.00;;;14.20;;
59938;SDS011;45801;51.810;19.444;2023-06-19T02:03:50;16.10;;;12.80;;
59938;SDS011;45801;51.810;19.444;2023-06-19T02:06:17;16.60;;;13.60;;
59938;SDS011;45801;51.810;19.444;2023-06-19T02:08:43;17.30;;;14.30;;
59938;SDS011;45801;51.810;19.444;2023-06-19T02:11:10;16.90;;;13.50;;
59938;SDS011;45801;51.810;19.444;2023-06-19T02:13:36;18.50;;;13.40;;
59938;SDS011;45801;51.810;19.444;2023-06-19T02:16:03;19.10;;;13.10;;
59938;SDS011;45801;51.810;19.444;2023-06-19T02:18:30;16.70;;;13.30;;
59938;SDS011;45801;51.810;19.444;2023-06-19T02:20:56;18.10;;;13.20;;
59938;SDS011;45801;51.810;19.444;2023-06-19T02:23:23;16.60;;;13.20;;
59938;SDS011;45801;51.810;19.444;2023-06-19T02:25:49;15.50;;;12.20;;
59938;SDS011;45801;51.810;19.444;2023-06-19T02:28:16;17.60;;;14.00;;
59938;SDS011;45801;51.810;19.444;2023-06-19T02:30:43;17.40;;;13.20;;
59938;SDS011;45801;51.810;19.444;2023-06-19T02:33:10;18.90;;;14.00;;
59938;SDS011;45801;51.810;19.444;2023-06-19T02:35:36;17.50;;;13.90;;
59938;SDS011;45801;51.810;19.444;2023-06-19T02:38:03;19.10;;;14.40;;
59938;SDS011;45801;51.810;19.444;2023-06-19T02:40:30;17.00;;;13.50;;
59938;SDS011;45801;51.810;19.444;2023-06-19T02:42:57;18.20;;;14.20;;
59938;SDS011;45801;51.810;19.444;2023-06-19T02:45:23;17.30;;;14.70;;
59938;SDS011;45801;51.810;19.444;2023-06-19T02:47:50;17.40;;;14.20;;
59938;SDS011;45801;51.810;19.444;2023-06-19T02:50:18;18.30;;;14.60;;
59938;SDS011;45801;51.810;19.444;2023-06-19T02:52:44;19.20;;;14.30;;
59938;SDS011;45801;51.810;19.444;2023-06-19T02:55:11;17.20;;;13.80;;
59938;SDS011;45801;51.810;19.444;2023-06-19T02:57:37;17.10;;;14.30;;
59938;SDS011;45801;51.810;19.444;2023-06-19T03:00:04;17.10;;;14.40;;
59938;SDS011;45801;51.810;19.444;2023-06-19T03:02:35;18.50;;;14.20;;
59938;SDS011;45801;51.810;19.444;2023-06-19T03:05:02;17.90;;;14.30;;
59938;SDS011;45801;51.810;19.444;2023-06-19T03:07:28;17.90;;;14.50;;
59938;SDS011;45801;51.810;19.444;2023-06-19T03:09:55;18.30;;;14.10;;
59938;SDS011;45801;51.810;19.444;2023-06-19T03:12:21;17.40;;;13.90;;
59938;SDS011;45801;51.810;19.444;2023-06-19T03:14:48;18.50;;;13.90;;
59938;SDS011;45801;51.810;19.444;2023-06-19T03:17:14;17.50;;;13.50;;
59938;SDS011;45801;51.810;19.444;2023-06-19T03:19:41;19.00;;;13.90;;
59938;SDS011;45801;51.810;19.444;2023-06-19T03:22:07;20.30;;;14.70;;
59938;SDS011;45801;51.810;19.444;2023-06-19T03:24:34;17.00;;;13.80;;
59938;SDS011;45801;51.810;19.444;2023-06-19T03:27:00;19.80;;;14.20;;
59938;SDS011;45801;51.810;19.444;2023-06-19T03:29:27;18.00;;;14.00;;
59938;SDS011;45801;51.810;19.444;2023-06-19T03:31:54;17.60;;;14.40;;
59938;SDS011;45801;51.810;19.444;2023-06-19T03:34:20;18.40;;;14.00;;
59938;SDS011;45801;51.810;19.444;2023-06-19T03:36:47;17.20;;;14.30;;
59938;SDS011;45801;51.810;19.444;2023-06-19T03:39:13;17.00;;;13.40;;
59938;SDS011;45801;51.810;19.444;2023-06-19T03:41:40;16.80;;;13.00;;
59938;SDS011;45801;51.810;19.444;2023-06-19T03:44:06;17.90;;;13.90;;
59938;SDS011;45801;51.810;19.444;2023-06-19T03:46:33;17.90;;;14.30;;
59938;SDS011;45801;51.810;19.444;2023-06-19T03:48:59;17.40;;;14.70;;
59938;SDS011;45801;51.810;19.444;2023-06-19T03:51:26;17.50;;;13.60;;
59938;SDS011;45801;51.810;19.444;2023-06-19T03:53:55;18.80;;;14.20;;
59938;SDS011;45801;51.810;19.444;2023-06-19T03:56:22;18.40;;;14.30;;
59938;SDS011;45801;51.810;19.444;2023-06-19T03:58:48;17.30;;;14.10;;
59938;SDS011;45801;51.810;19.444;2023-06-19T04:01:14;19.00;;;14.50;;
59938;SDS011;45801;51.810;19.444;2023-06-19T04:03:41;18.80;;;14.70;;
59938;SDS011;45801;51.810;19.444;2023-06-19T04:06:07;18.20;;;13.80;;
59938;SDS011;45801;51.810;19.444;2023-06-19T04:08:34;18.60;;;14.50;;
59938;SDS011;45801;51.810;19.444;2023-06-19T04:11:00;20.40;;;15.60;;
59938;SDS011;45801;51.810;19.444;2023-06-19T04:13:27;16.90;;;13.80;;
59938;SDS011;45801;51.810;19.444;2023-06-19T04:15:53;17.80;;;14.00;;
59938;SDS011;45801;51.810;19.444;2023-06-19T04:18:20;17.90;;;14.00;;
59938;SDS011;45801;51.810;19.444;2023-06-19T04:20:46;17.40;;;14.30;;
59938;SDS011;45801;51.810;19.444;2023-06-19T04:23:13;16.70;;;13.70;;
59938;SDS011;45801;51.810;19.444;2023-06-19T04:25:39;17.30;;;13.70;;
59938;SDS011;45801;51.810;19.444;2023-06-19T04:28:06;18.80;;;14.40;;
59938;SDS011;45801;51.810;19.444;2023-06-19T04:30:32;17.50;;;14.10;;
59938;SDS011;45801;51.810;19.444;2023-06-19T04:32:59;18.10;;;14.30;;
59938;SDS011;45801;51.810;19.444;2023-06-19T04:35:26;17.50;;;13.30;;
59938;SDS011;45801;51.810;19.444;2023-06-19T04:37:53;20.60;;;14.10;;
59938;SDS011;45801;51.810;19.444;2023-06-19T04:40:19;16.80;;;13.20;;
59938;SDS011;45801;51.810;19.444;2023-06-19T04:42:46;17.60;;;13.90;;
59938;SDS011;45801;51.810;19.444;2023-06-19T04:45:12;17.90;;;14.60;;
59938;SDS011;45801;51.810;19.444;2023-06-19T04:47:39;19.30;;;14.60;;
59938;SDS011;45801;51.810;19.444;2023-06-19T04:50:06;20.80;;;15.80;;
59938;SDS011;45801;51.810;19.444;2023-06-19T04:52:36;18.80;;;14.20;;
59938;SDS011;45801;51.810;19.444;2023-06-19T04:55:07;18.90;;;14.50;;
59938;SDS011;45801;51.810;19.444;2023-06-19T04:57:35;15.60;;;13.30;;
59938;SDS011;45801;51.810;19.444;2023-06-19T05:00:04;18.90;;;15.30;;
59938;SDS011;45801;51.810;19.444;2023-06-19T05:02:36;20.20;;;16.20;;
59938;SDS011;45801;51.810;19.444;2023-06-19T05:05:02;21.00;;;15.00;;
59938;SDS011;45801;51.810;19.444;2023-06-19T05:07:29;18.20;;;15.40;;
59938;SDS011;45801;51.810;19.444;2023-06-19T05:09:57;17.40;;;14.50;;
59938;SDS011;45801;51.810;19.444;2023-06-19T05:12:25;20.50;;;14.50;;
59938;SDS011;45801;51.810;19.444;2023-06-19T05:14:51;19.00;;;14.90;;
59938;SDS011;45801;51.810;19.444;2023-06-19T05:17:19;19.00;;;14.90;;
59938;SDS011;45801;51.810;19.444;2023-06-19T05:19:45;17.10;;;13.80;;
59938;SDS011;45801;51.810;19.444;2023-06-19T05:22:11;17.90;;;15.20;;
59938;SDS011;45801;51.810;19.444;2023-06-19T05:24:38;15.30;;;13.50;;
59938;SDS011;45801;51.810;19.444;2023-06-19T05:27:05;17.80;;;14.50;;
59938;SDS011;45801;51.810;19.444;2023-06-19T05:29:32;17.40;;;13.80;;
59938;SDS011;45801;51.810;19.444;2023-06-19T05:31:58;18.30;;;14.70;;
59938;SDS011;45801;51.810;19.444;2023-06-19T05:34:25;18.00;;;14.60;;
59938;SDS011;45801;51.810;19.444;2023-06-19T05:36:51;20.40;;;13.10;;
59938;SDS011;45801;51.810;19.444;2023-06-19T05:39:18;16.80;;;14.10;;
59938;SDS011;45801;51.810;19.444;2023-06-19T05:41:45;18.40;;;13.60;;
59938;SDS011;45801;51.810;19.444;2023-06-19T05:44:14;15.40;;;13.30;;
59938;SDS011;45801;51.810;19.444;2023-06-19T05:46:42;16.90;;;12.70;;
59938;SDS011;45801;51.810;19.444;2023-06-19T05:49:09;16.70;;;12.20;;
59938;SDS011;45801;51.810;19.444;2023-06-19T05:51:35;15.60;;;12.70;;
59938;SDS011;45801;51.810;19.444;2023-06-19T05:54:02;15.10;;;12.50;;
59938;SDS011;45801;51.810;19.444;2023-06-19T05:56:30;15.10;;;12.30;;
59938;SDS011;45801;51.810;19.444;2023-06-19T05:58:59;17.20;;;12.60;;
59938;SDS011;45801;51.810;19.444;2023-06-19T06:01:28;14.60;;;11.50;;
59938;SDS011;45801;51.810;19.444;2023-06-19T06:03:55;15.40;;;11.60;;
59938;SDS011;45801;51.810;19.444;2023-06-19T06:06:23;17.30;;;11.10;;
59938;SDS011;45801;51.810;19.444;2023-06-19T06:08:50;15.10;;;11.30;;
59938;SDS011;45801;51.810;19.444;2023-06-19T06:11:17;15.30;;;11.50;;
59938;SDS011;45801;51.810;19.444;2023-06-19T06:13:44;13.50;;;10.60;;
59938;SDS011;45801;51.810;19.444;2023-06-19T06:16:10;15.00;;;10.70;;
59938;SDS011;45801;51.810;19.444;2023-06-19T06:18:36;15.00;;;10.80;;
59938;SDS011;45801;51.810;19.444;2023-06-19T06:21:03;13.20;;;10.00;;
59938;SDS011;45801;51.810;19.444;2023-06-19T06:23:30;12.90;;;10.20;;
59938;SDS011;45801;51.810;19.444;2023-06-19T06:25:57;14.70;;;10.30;;
59938;SDS011;45801;51.810;19.444;2023-06-19T06:28:28;12.30;;;9.50;;
59938;SDS011;45801;51.810;19.444;2023-06-19T06:30:55;12.40;;;9.80;;
59938;SDS011;45801;51.810;19.444;2023-06-19T06:33:21;11.30;;;8.90;;
59938;SDS011;45801;51.810;19.444;2023-06-19T06:35:51;11.40;;;9.10;;
59938;SDS011;45801;51.810;19.444;2023-06-19T06:38:20;13.10;;;9.00;;
59938;SDS011;45801;51.810;19.444;2023-06-19T06:40:46;14.60;;;9.50;;
59938;SDS011;45801;51.810;19.444;2023-06-19T06:43:13;12.80;;;9.10;;
59938;SDS011;45801;51.810;19.444;2023-06-19T06:45:40;12.40;;;9.20;;
59938;SDS011;45801;51.810;19.444;2023-06-19T06:48:08;12.90;;;9.70;;
59938;SDS011;45801;51.810;19.444;2023-06-19T06:50:34;11.70;;;9.10;;
59938;SDS011;45801;51.810;19.444;2023-06-19T06:53:01;12.30;;;8.80;;
59938;SDS011;45801;51.810;19.444;2023-06-19T06:55:28;10.20;;;7.50;;
59938;SDS011;45801;51.810;19.444;2023-06-19T06:57:54;11.20;;;7.30;;
59938;SDS011;45801;51.810;19.444;2023-06-19T07:00:21;10.00;;;6.20;;
59938;SDS011;45801;51.810;19.444;2023-06-19T07:02:47;9.60;;;6.90;;
59938;SDS011;45801;51.810;19.444;2023-06-19T07:05:16;11.90;;;7.90;;
59938;SDS011;45801;51.810;19.444;2023-06-19T07:07:43;10.80;;;8.00;;
59938;SDS011;45801;51.810;19.444;2023-06-19T07:10:09;13.30;;;8.40;;
59938;SDS011;45801;51.810;19.444;2023-06-19T07:12:43;10.50;;;7.20;;
59938;SDS011;45801;51.810;19.444;2023-06-19T07:15:12;10.80;;;7.70;;
59938;SDS011;45801;51.810;19.444;2023-06-19T07:17:38;10.40;;;7.80;;
59938;SDS011;45801;51.810;19.444;2023-06-19T07:20:05;12.20;;;6.80;;
59938;SDS011;45801;51.810;19.444;2023-06-19T07:22:32;10.10;;;7.10;;
59938;SDS011;45801;51.810;19.444;2023-06-19T07:24:59;9.70;;;7.10;;
59938;SDS011;45801;51.810;19.444;2023-06-19T07:27:25;9.90;;;6.70;;
59938;SDS011;45801;51.810;19.444;2023-06-19T07:29:53;10.80;;;7.30;;
59938;SDS011;45801;51.810;19.444;2023-06-19T07:32:20;10.20;;;7.20;;
59938;SDS011;45801;51.810;19.444;2023-06-19T07:34:46;10.70;;;7.20;;
59938;SDS011;45801;51.810;19.444;2023-06-19T07:37:13;9.10;;;6.50;;
59938;SDS011;45801;51.810;19.444;2023-06-19T07:39:47;9.80;;;7.20;;
59938;SDS011;45801;51.810;19.444;2023-06-19T07:42:16;11.10;;;7.10;;
59938;SDS011;45801;51.810;19.444;2023-06-19T07:44:44;8.80;;;6.40;;
59938;SDS011;45801;51.810;19.444;2023-06-19T07:47:11;8.80;;;6.10;;
59938;SDS011;45801;51.810;19.444;2023-06-19T07:49:39;10.30;;;6.30;;
59938;SDS011;45801;51.810;19.444;2023-06-19T07:52:06;9.40;;;6.30;;
59938;SDS011;45801;51.810;19.444;2023-06-19T07:54:35;9.10;;;6.50;;
59938;SDS011;45801;51.810;19.444;2023-06-19T07:57:02;9.30;;;6.60;;
59938;SDS011;45801;51.810;19.444;2023-06-19T07:59:28;9.40;;;6.70;;
59938;SDS011;45801;51.810;19.444;2023-06-19T08:01:55;9.20;;;6.40;;
59938;SDS011;45801;51.810;19.444;2023-06-19T08:04:21;9.60;;;6.70;;
59938;SDS011;45801;51.810;19.444;2023-06-19T08:06:47;9.70;;;6.50;;
59938;SDS011;45801;51.810;19.444;2023-06-19T08:09:14;9.30;;;5.70;;
59938;SDS011;45801;51.810;19.444;2023-06-19T08:11:41;8.80;;;5.90;;
59938;SDS011;45801;51.810;19.444;2023-06-19T08:14:07;9.70;;;6.20;;
59938;SDS011;45801;51.810;19.444;2023-06-19T08:16:34;9.40;;;6.30;;
59938;SDS011;45801;51.810;19.444;2023-06-19T08:19:00;9.80;;;6.20;;
59938;SDS011;45801;51.810;19.444;2023-06-19T08:21:28;9.70;;;6.20;;
59938;SDS011;45801;51.810;19.444;2023-06-19T08:23:54;9.90;;;6.30;;
59938;SDS011;45801;51.810;19.444;2023-06-19T08:26:20;9.90;;;6.90;;
59938;SDS011;45801;51.810;19.444;2023-06-19T08:28:47;9.00;;;6.70;;
59938;SDS011;45801;51.810;19.444;2023-06-19T08:31:14;9.40;;;6.30;;
59938;SDS011;45801;51.810;19.444;2023-06-19T08:33:40;9.60;;;6.30;;
59938;SDS011;45801;51.810;19.444;2023-06-19T08:36:07;10.30;;;6.80;;
59938;SDS011;45801;51.810;19.444;2023-06-19T08:38:33;8.90;;;6.60;;
59938;SDS011;45801;51.810;19.444;2023-06-19T08:41:00;9.70;;;6.60;;
59938;SDS011;45801;51.810;19.444;2023-06-19T08:43:26;8.30;;;6.00;;
59938;SDS011;45801;51.810;19.444;2023-06-19T08:46:06;9.70;;;5.30;;
59938;SDS011;45801;51.810;19.444;2023-06-19T08:48:37;8.60;;;5.40;;
59938;SDS011;45801;51.810;19.444;2023-06-19T08:51:04;9.30;;;5.80;;
59938;SDS011;45801;51.810;19.444;2023-06-19T08:53:32;9.70;;;5.90;;
59938;SDS011;45801;51.810;19.444;2023-06-19T08:56:03;7.90;;;5.50;;
59938;SDS011;45801;51.810;19.444;2023-06-19T08:58:30;8.50;;;5.50;;
59938;SDS011;45801;51.810;19.444;2023-06-19T09:00:59;8.30;;;5.70;;
59938;SDS011;45801;51.810;19.444;2023-06-19T09:03:26;7.80;;;5.30;;
59938;SDS011;45801;51.810;19.444;2023-06-19T09:05:52;8.30;;;5.50;;
59938;SDS011;45801;51.810;19.444;2023-06-19T09:08:19;8.30;;;5.50;;
59938;SDS011;45801;51.810;19.444;2023-06-19T09:16:06;8.80;;;5.30;;
59938;SDS011;45801;51.810;19.444;2023-06-19T09:18:44;8.80;;;5.20;;
59938;SDS011;45801;51.810;19.444;2023-06-19T09:21:19;9.40;;;5.20;;
59938;SDS011;45801;51.810;19.444;2023-06-19T09:23:51;8.70;;;5.20;;
59938;SDS011;45801;51.810;19.444;2023-06-19T09:26:17;9.20;;;5.20;;
59938;SDS011;45801;51.810;19.444;2023-06-19T09:28:46;9.20;;;5.50;;
59938;SDS011;45801;51.810;19.444;2023-06-19T09:31:13;9.60;;;5.50;;
59938;SDS011;45801;51.810;19.444;2023-06-19T09:33:40;8.10;;;5.50;;
59938;SDS011;45801;51.810;19.444;2023-06-19T09:36:07;7.50;;;5.30;;
59938;SDS011;45801;51.810;19.444;2023-06-19T09:38:35;8.40;;;5.10;;
59938;SDS011;45801;51.810;19.444;2023-06-19T09:41:05;10.70;;;5.60;;
59938;SDS011;45801;51.810;19.444;2023-06-19T09:43:42;7.90;;;5.00;;
59938;SDS011;45801;51.810;19.444;2023-06-19T09:46:10;8.90;;;5.30;;
59938;SDS011;45801;51.810;19.444;2023-06-19T09:48:44;8.20;;;5.00;;
59938;SDS011;45801;51.810;19.444;2023-06-19T09:53:46;9.00;;;5.20;;
59938;SDS011;45801;51.810;19.444;2023-06-19T09:56:14;8.10;;;5.60;;
59938;SDS011;45801;51.810;19.444;2023-06-19T09:58:42;9.00;;;5.80;;
59938;SDS011;45801;51.810;19.444;2023-06-19T10:01:09;9.70;;;6.10;;
59938;SDS011;45801;51.810;19.444;2023-06-19T10:03:36;8.40;;;5.60;;
59938;SDS011;45801;51.810;19.444;2023-06-19T10:06:03;8.10;;;5.70;;
59938;SDS011;45801;51.810;19.444;2023-06-19T10:08:32;8.30;;;5.00;;
59938;SDS011;45801;51.810;19.444;2023-06-19T10:11:05;9.60;;;5.70;;
59938;SDS011;45801;51.810;19.444;2023-06-19T10:13:40;8.70;;;5.70;;
59938;SDS011;45801;51.810;19.444;2023-06-19T10:16:07;9.60;;;5.60;;
59938;SDS011;45801;51.810;19.444;2023-06-19T10:18:46;9.00;;;6.40;;
59938;SDS011;45801;51.810;19.444;2023-06-19T10:21:17;8.50;;;6.10;;
59938;SDS011;45801;51.810;19.444;2023-06-19T10:23:52;8.40;;;5.90;;
59938;SDS011;45801;51.810;19.444;2023-06-19T10:26:30;11.40;;;5.90;;
59938;SDS011;45801;51.810;19.444;2023-06-19T10:28:58;8.60;;;5.80;;
59938;SDS011;45801;51.810;19.444;2023-06-19T10:31:25;8.60;;;5.50;;
59938;SDS011;45801;51.810;19.444;2023-06-19T10:33:51;8.30;;;5.60;;
59938;SDS011;45801;51.810;19.444;2023-06-19T10:36:19;9.80;;;6.00;;
59938;SDS011;45801;51.810;19.444;2023-06-19T10:38:49;7.90;;;5.10;;
59938;SDS011;45801;51.810;19.444;2023-06-19T10:41:19;8.40;;;5.70;;
59938;SDS011;45801;51.810;19.444;2023-06-19T10:46:24;9.40;;;5.60;;
59938;SDS011;45801;51.810;19.444;2023-06-19T10:48:55;8.50;;;6.20;;
59938;SDS011;45801;51.810;19.444;2023-06-19T10:51:27;8.30;;;5.90;;
59938;SDS011;45801;51.810;19.444;2023-06-19T10:53:55;7.50;;;5.10;;
59938;SDS011;45801;51.810;19.444;2023-06-19T10:56:22;8.80;;;5.40;;
59938;SDS011;45801;51.810;19.444;2023-06-19T11:01:33;8.90;;;6.10;;
59938;SDS011;45801;51.810;19.444;2023-06-19T11:04:08;8.10;;;5.70;;
59938;SDS011;45801;51.810;19.444;2023-06-19T11:06:37;8.30;;;5.40;;
59938;SDS011;45801;51.810;19.444;2023-06-19T11:09:08;8.70;;;5.50;;
59938;SDS011;45801;51.810;19.444;2023-06-19T11:14:07;7.80;;;5.60;;
59938;SDS011;45801;51.810;19.444;2023-06-19T11:16:34;7.80;;;4.60;;
59938;SDS011;45801;51.810;19.444;2023-06-19T11:19:03;9.00;;;5.00;;
59938;SDS011;45801;51.810;19.444;2023-06-19T11:21:34;7.30;;;4.50;;
59938;SDS011;45801;51.810;19.444;2023-06-19T11:24:10;7.90;;;5.00;;
59938;SDS011;45801;51.810;19.444;2023-06-19T11:26:39;7.70;;;5.20;;
59938;SDS011;45801;51.810;19.444;2023-06-19T11:29:16;7.50;;;4.80;;
59938;SDS011;45801;51.810;19.444;2023-06-19T11:31:45;7.90;;;5.00;;
59938;SDS011;45801;51.810;19.444;2023-06-19T11:34:11;7.10;;;4.90;;
59938;SDS011;45801;51.810;19.444;2023-06-19T11:36:39;8.90;;;5.70;;
59938;SDS011;45801;51.810;19.444;2023-06-19T11:39:10;8.60;;;5.50;;
59938;SDS011;45801;51.810;19.444;2023-06-19T11:41:37;7.50;;;5.10;;
59938;SDS011;45801;51.810;19.444;2023-06-19T11:44:05;8.30;;;5.20;;
59938;SDS011;45801;51.810;19.444;2023-06-19T11:46:32;7.40;;;5.10;;
59938;SDS011;45801;51.810;19.444;2023-06-19T11:49:13;7.60;;;5.40;;
59938;SDS011;45801;51.810;19.444;2023-06-19T11:51:44;6.90;;;4.50;;
59938;SDS011;45801;51.810;19.444;2023-06-19T11:54:12;8.90;;;5.20;;
59938;SDS011;45801;51.810;19.444;2023-06-19T11:56:47;8.40;;;5.40;;
59938;SDS011;45801;51.810;19.444;2023-06-19T11:59:16;8.40;;;5.20;;
59938;SDS011;45801;51.810;19.444;2023-06-19T12:01:42;9.10;;;5.00;;
59938;SDS011;45801;51.810;19.444;2023-06-19T12:04:09;10.40;;;5.50;;
59938;SDS011;45801;51.810;19.444;2023-06-19T12:06:35;9.40;;;5.20;;
59938;SDS011;45801;51.810;19.444;2023-06-19T12:09:03;7.20;;;4.60;;
59938;SDS011;45801;51.810;19.444;2023-06-19T12:11:31;9.10;;;4.90;;
59938;SDS011;45801;51.810;19.444;2023-06-19T12:13:58;7.30;;;4.70;;
59938;SDS011;45801;51.810;19.444;2023-06-19T12:16:25;8.60;;;4.80;;
59938;SDS011;45801;51.810;19.444;2023-06-19T12:18:52;7.50;;;5.00;;
59938;SDS011;45801;51.810;19.444;2023-06-19T12:21:19;9.10;;;5.20;;
59938;SDS011;45801;51.810;19.444;2023-06-19T12:23:46;7.80;;;5.60;;
59938;SDS011;45801;51.810;19.444;2023-06-19T12:26:12;7.80;;;5.10;;
59938;SDS011;45801;51.810;19.444;2023-06-19T12:28:38;8.30;;;5.50;;
59938;SDS011;45801;51.810;19.444;2023-06-19T12:31:05;8.70;;;5.30;;
59938;SDS011;45801;51.810;19.444;2023-06-19T12:33:31;8.10;;;5.50;;
59938;SDS011;45801;51.810;19.444;2023-06-19T12:35:58;9.00;;;5.70;;
59938;SDS011;45801;51.810;19.444;2023-06-19T12:38:25;7.60;;;5.30;;
59938;SDS011;45801;51.810;19.444;2023-06-19T12:40:52;8.50;;;5.40;;
59938;SDS011;45801;51.810;19.444;2023-06-19T12:43:19;7.90;;;4.80;;
59938;SDS011;45801;51.810;19.444;2023-06-19T12:45:45;7.70;;;4.30;;
59938;SDS011;45801;51.810;19.444;2023-06-19T12:48:12;8.90;;;5.20;;
59938;SDS011;45801;51.810;19.444;2023-06-19T12:50:39;7.90;;;4.40;;
59938;SDS011;45801;51.810;19.444;2023-06-19T12:53:05;7.40;;;4.90;;
59938;SDS011;45801;51.810;19.444;2023-06-19T12:55:31;7.90;;;4.80;;
59938;SDS011;45801;51.810;19.444;2023-06-19T12:57:58;7.50;;;4.80;;
59938;SDS011;45801;51.810;19.444;2023-06-19T13:00:24;8.00;;;5.00;;
59938;SDS011;45801;51.810;19.444;2023-06-19T13:02:51;7.20;;;4.60;;
59938;SDS011;45801;51.810;19.444;2023-06-19T13:05:17;7.50;;;4.60;;
59938;SDS011;45801;51.810;19.444;2023-06-19T13:07:44;7.10;;;4.80;;
59938;SDS011;45801;51.810;19.444;2023-06-19T13:10:10;7.30;;;4.60;;
59938;SDS011;45801;51.810;19.444;2023-06-19T13:12:37;6.90;;;4.60;;
59938;SDS011;45801;51.810;19.444;2023-06-19T13:15:03;8.00;;;4.80;;
59938;SDS011;45801;51.810;19.444;2023-06-19T13:17:31;7.40;;;4.80;;
59938;SDS011;45801;51.810;19.444;2023-06-19T13:19:57;8.00;;;4.50;;
59938;SDS011;45801;51.810;19.444;2023-06-19T13:22:25;8.00;;;4.60;;
59938;SDS011;45801;51.810;19.444;2023-06-19T13:24:52;8.00;;;4.80;;
59938;SDS011;45801;51.810;19.444;2023-06-19T13:27:18;7.30;;;4.30;;
59938;SDS011;45801;51.810;19.444;2023-06-19T13:29:45;8.20;;;4.00;;
59938;SDS011;45801;51.810;19.444;2023-06-19T13:32:11;8.50;;;4.90;;
59938;SDS011;45801;51.810;19.444;2023-06-19T13:34:37;7.40;;;4.30;;
59938;SDS011;45801;51.810;19.444;2023-06-19T13:37:04;9.80;;;4.70;;
59938;SDS011;45801;51.810;19.444;2023-06-19T13:39:30;7.10;;;4.70;;
59938;SDS011;45801;51.810;19.444;2023-06-19T13:41:57;8.60;;;4.70;;
59938;SDS011;45801;51.810;19.444;2023-06-19T13:44:27;7.60;;;4.10;;
59938;SDS011;45801;51.810;19.444;2023-06-19T13:46:54;8.50;;;3.90;;
59938;SDS011;45801;51.810;19.444;2023-06-19T13:49:20;8.20;;;4.10;;
59938;SDS011;45801;51.810;19.444;2023-06-19T13:51:47;7.20;;;4.30;;
59938;SDS011;45801;51.810;19.444;2023-06-19T13:54:14;7.60;;;4.00;;
59938;SDS011;45801;51.810;19.444;2023-06-19T13:56:40;10.70;;;4.50;;
59938;SDS011;45801;51.810;19.444;2023-06-19T13:59:07;7.90;;;4.20;;
59938;SDS011;45801;51.810;19.444;2023-06-19T14:01:34;7.60;;;4.00;;
59938;SDS011;45801;51.810;19.444;2023-06-19T14:04:01;7.50;;;4.70;;
59938;SDS011;45801;51.810;19.444;2023-06-19T14:06:27;6.80;;;3.80;;
59938;SDS011;45801;51.810;19.444;2023-06-19T14:08:54;7.20;;;4.20;;
59938;SDS011;45801;51.810;19.444;2023-06-19T14:11:20;6.80;;;3.80;;
59938;SDS011;45801;51.810;19.444;2023-06-19T14:13:47;9.30;;;4.70;;
59938;SDS011;45801;51.810;19.444;2023-06-19T14:16:13;8.50;;;5.60;;
59938;SDS011;45801;51.810;19.444;2023-06-19T14:18:40;8.70;;;4.90;;
59938;SDS011;45801;51.810;19.444;2023-06-19T14:21:06;8.60;;;5.20;;
59938;SDS011;45801;51.810;19.444;2023-06-19T14:23:33;9.00;;;4.90;;
59938;SDS011;45801;51.810;19.444;2023-06-19T14:26:05;7.20;;;4.40;;
59938;SDS011;45801;51.810;19.444;2023-06-19T14:28:31;8.40;;;4.90;;
59938;SDS011;45801;51.810;19.444;2023-06-19T14:30:58;7.40;;;4.70;;
59938;SDS011;45801;51.810;19.444;2023-06-19T14:33:24;8.70;;;5.20;;
59938;SDS011;45801;51.810;19.444;2023-06-19T14:35:51;8.50;;;4.60;;
59938;SDS011;45801;51.810;19.444;2023-06-19T14:38:17;8.80;;;4.80;;
59938;SDS011;45801;51.810;19.444;2023-06-19T14:40:44;6.80;;;4.30;;